sensor_id;sensor_type;location;lat;lon;timestamp;P1;durP1;ratioP1;P2;durP2;ratioP2
25615;SDS011;13482;48.234;13.006;2022-09-28T00:01:18;0.30;;;0.20;;
25615;SDS011;13482;48.234;13.006;2022-09-28T00:03:50;0.10;;;0.10;;
25615;SDS011;13482;48.234;13.006;2022-09-28T00:06:21;0.13;;;0.00;;
25615;SDS011;13482;48.234;13.006;2022-09-28T00:08:51;0.00;;;0.00;;
25615;SDS011;13482;48.234;13.006;2022-09-28T00:11:19;0.10;;;0.00;;
25615;SDS011;13482;48.234;13.006;2022-09-28T00:13:48;0.00;;;0.00;;
25615;SDS011;13482;48.234;13.006;2022-09-28T00:16:19;0.10;;;0.10;;
25615;SDS011;13482;48.234;13.006;2022-09-28T00:18:53;0.15;;;0.00;;
25615;SDS011;13482;48.234;13.006;2022-09-28T00:21:23;0.08;;;0.00;;
25615;SDS011;13482;48.234;13.006;2022-09-28T00:23:57;0.30;;;0.10;;
25615;SDS011;13482;48.234;13.006;2022-09-28T00:26:42;1.40;;;0.05;;
25615;SDS011;13482;48.234;13.006;2022-09-28T00:32:08;0.52;;;0.15;;
25615;SDS011;13482;48.234;13.006;2022-09-28T00:34:38;0.37;;;0.27;;
25615;SDS011;13482;48.234;13.006;2022-09-28T00:37:12;0.55;;;0.10;;
25615;SDS011;13482;48.234;13.006;2022-09-28T00:39:40;0.45;;;0.10;;
25615;SDS011;13482;48.234;13.006;2022-09-28T00:42:15;0.10;;;0.00;;
25615;SDS011;13482;48.234;13.006;2022-09-28T00:44:47;1.10;;;0.00;;
25615;SDS011;13482;48.234;13.006;2022-09-28T00:47:36;0.35;;;0.10;;
25615;SDS011;13482;48.234;13.006;2022-09-28T00:50:17;0.15;;;0.00;;
25615;SDS011;13482;48.234;13.006;2022-09-28T00:53:02;0.20;;;0.10;;
25615;SDS011;13482;48.234;13.006;2022-09-28T00:58:42;0.35;;;0.10;;
25615;SDS011;13482;48.234;13.006;2022-09-28T01:01:14;0.68;;;0.20;;
25615;SDS011;13482;48.234;13.006;2022-09-28T01:03:42;0.25;;;0.10;;
25615;SDS011;13482;48.234;13.006;2022-09-28T01:08:45;0.00;;;0.00;;
25615;SDS011;13482;48.234;13.006;2022-09-28T01:11:17;0.08;;;0.00;;
25615;SDS011;13482;48.234;13.006;2022-09-28T01:13:45;0.17;;;0.00;;
25615;SDS011;13482;48.234;13.006;2022-09-28T01:16:38;0.38;;;0.00;;
25615;SDS011;13482;48.234;13.006;2022-09-28T01:19:22;0.10;;;0.00;;
25615;SDS011;13482;48.234;13.006;2022-09-28T01:28:17;0.17;;;0.00;;
25615;SDS011;13482;48.234;13.006;2022-09-28T01:30:53;0.05;;;0.00;;
25615;SDS011;13482;48.234;13.006;2022-09-28T01:33:39;0.37;;;0.10;;
25615;SDS011;13482;48.234;13.006;2022-09-28T01:38:46;0.20;;;0.10;;
25615;SDS011;13482;48.234;13.006;2022-09-28T01:41:18;0.40;;;0.10;;
25615;SDS011;13482;48.234;13.006;2022-09-28T01:43:49;0.20;;;0.00;;
25615;SDS011;13482;48.234;13.006;2022-09-28T01:46:29;0.17;;;0.08;;
25615;SDS011;13482;48.234;13.006;2022-09-28T01:49:10;0.00;;;0.00;;
25615;SDS011;13482;48.234;13.006;2022-09-28T01:54:35;0.00;;;0.00;;
25615;SDS011;13482;48.234;13.006;2022-09-28T02:00:28;0.13;;;0.10;;
25615;SDS011;13482;48.234;13.006;2022-09-28T02:02:59;0.20;;;0.00;;
25615;SDS011;13482;48.234;13.006;2022-09-28T02:05:36;0.22;;;0.00;;
25615;SDS011;13482;48.234;13.006;2022-09-28T02:08:26;0.05;;;0.05;;
25615;SDS011;13482;48.234;13.006;2022-09-28T02:11:21;0.65;;;0.00;;
25615;SDS011;13482;48.234;13.006;2022-09-28T02:13:55;0.25;;;0.00;;
25615;SDS011;13482;48.234;13.006;2022-09-28T02:16:30;0.10;;;0.10;;
25615;SDS011;13482;48.234;13.006;2022-09-28T02:19:24;0.17;;;0.05;;
25615;SDS011;13482;48.234;13.006;2022-09-28T02:22:15;0.22;;;0.10;;
25615;SDS011;13482;48.234;13.006;2022-09-28T02:25:22;0.00;;;0.00;;
25615;SDS011;13482;48.234;13.006;2022-09-28T02:28:11;0.10;;;0.03;;
25615;SDS011;13482;48.234;13.006;2022-09-28T02:30:39;0.40;;;0.10;;
25615;SDS011;13482;48.234;13.006;2022-09-28T02:33:16;0.73;;;0.10;;
25615;SDS011;13482;48.234;13.006;2022-09-28T02:35:48;0.63;;;0.08;;
25615;SDS011;13482;48.234;13.006;2022-09-28T02:38:15;0.00;;;0.00;;
25615;SDS011;13482;48.234;13.006;2022-09-28T02:40:43;0.35;;;0.08;;
25615;SDS011;13482;48.234;13.006;2022-09-28T02:43:51;0.20;;;0.05;;
25615;SDS011;13482;48.234;13.006;2022-09-28T02:47:12;0.25;;;0.10;;
25615;SDS011;13482;48.234;13.006;2022-09-28T02:49:55;0.20;;;0.00;;
25615;SDS011;13482;48.234;13.006;2022-09-28T02:52:44;0.17;;;0.00;;
25615;SDS011;13482;48.234;13.006;2022-09-28T02:58:59;0.00;;;0.00;;
25615;SDS011;13482;48.234;13.006;2022-09-28T03:01:49;0.00;;;0.00;;
25615;SDS011;13482;48.234;13.006;2022-09-28T03:07:05;0.13;;;0.00;;
25615;SDS011;13482;48.234;13.006;2022-09-28T03:13:05;0.63;;;0.10;;
25615;SDS011;13482;48.234;13.006;2022-09-28T03:15:34;0.08;;;0.00;;
25615;SDS011;13482;48.234;13.006;2022-09-28T03:18:03;0.00;;;0.00;;
25615;SDS011;13482;48.234;13.006;2022-09-28T03:20:31;0.00;;;0.00;;
25615;SDS011;13482;48.234;13.006;2022-09-28T03:22:58;0.82;;;0.10;;
25615;SDS011;13482;48.234;13.006;2022-09-28T03:25:46;0.43;;;0.10;;
25615;SDS011;13482;48.234;13.006;2022-09-28T03:28:13;0.30;;;0.10;;
25615;SDS011;13482;48.234;13.006;2022-09-28T03:30:41;0.40;;;0.20;;
25615;SDS011;13482;48.234;13.006;2022-09-28T03:33:08;0.35;;;0.20;;
25615;SDS011;13482;48.234;13.006;2022-09-28T03:35:36;0.63;;;0.20;;
25615;SDS011;13482;48.234;13.006;2022-09-28T03:38:03;0.15;;;0.10;;
25615;SDS011;13482;48.234;13.006;2022-09-28T03:40:30;0.20;;;0.13;;
25615;SDS011;13482;48.234;13.006;2022-09-28T03:42:59;0.40;;;0.10;;
25615;SDS011;13482;48.234;13.006;2022-09-28T03:45:26;0.20;;;0.10;;
25615;SDS011;13482;48.234;13.006;2022-09-28T03:47:54;0.30;;;0.10;;
25615;SDS011;13482;48.234;13.006;2022-09-28T03:50:21;0.13;;;0.03;;
25615;SDS011;13482;48.234;13.006;2022-09-28T03:52:48;0.55;;;0.10;;
25615;SDS011;13482;48.234;13.006;2022-09-28T03:55:16;0.50;;;0.20;;
25615;SDS011;13482;48.234;13.006;2022-09-28T03:57:43;0.60;;;0.10;;
25615;SDS011;13482;48.234;13.006;2022-09-28T04:00:10;0.10;;;0.10;;
25615;SDS011;13482;48.234;13.006;2022-09-28T04:02:38;0.80;;;0.10;;
25615;SDS011;13482;48.234;13.006;2022-09-28T04:05:05;0.32;;;0.15;;
25615;SDS011;13482;48.234;13.006;2022-09-28T04:07:34;0.22;;;0.20;;
25615;SDS011;13482;48.234;13.006;2022-09-28T04:10:02;0.30;;;0.20;;
25615;SDS011;13482;48.234;13.006;2022-09-28T04:12:29;0.32;;;0.25;;
25615;SDS011;13482;48.234;13.006;2022-09-28T04:14:57;0.47;;;0.28;;
25615;SDS011;13482;48.234;13.006;2022-09-28T04:17:24;0.35;;;0.20;;
25615;SDS011;13482;48.234;13.006;2022-09-28T04:19:52;0.50;;;0.28;;
25615;SDS011;13482;48.234;13.006;2022-09-28T04:22:20;1.30;;;0.63;;
25615;SDS011;13482;48.234;13.006;2022-09-28T04:24:48;1.77;;;0.98;;
25615;SDS011;13482;48.234;13.006;2022-09-28T04:27:15;3.08;;;1.70;;
25615;SDS011;13482;48.234;13.006;2022-09-28T04:30:01;2.70;;;1.20;;
25615;SDS011;13482;48.234;13.006;2022-09-28T04:32:28;1.20;;;0.60;;
25615;SDS011;13482;48.234;13.006;2022-09-28T04:34:56;1.27;;;0.60;;
25615;SDS011;13482;48.234;13.006;2022-09-28T04:37:23;1.30;;;0.70;;
25615;SDS011;13482;48.234;13.006;2022-09-28T04:39:50;1.83;;;0.93;;
25615;SDS011;13482;48.234;13.006;2022-09-28T04:42:17;1.10;;;0.80;;
25615;SDS011;13482;48.234;13.006;2022-09-28T04:44:44;1.90;;;0.82;;
25615;SDS011;13482;48.234;13.006;2022-09-28T04:47:11;2.13;;;0.70;;
25615;SDS011;13482;48.234;13.006;2022-09-28T04:49:38;2.10;;;0.88;;
25615;SDS011;13482;48.234;13.006;2022-09-28T04:52:05;1.17;;;0.80;;
25615;SDS011;13482;48.234;13.006;2022-09-28T04:54:33;1.00;;;0.70;;
25615;SDS011;13482;48.234;13.006;2022-09-28T04:57:00;1.42;;;0.82;;
25615;SDS011;13482;48.234;13.006;2022-09-28T04:59:29;0.90;;;0.60;;
25615;SDS011;13482;48.234;13.006;2022-09-28T05:01:56;0.77;;;0.40;;
25615;SDS011;13482;48.234;13.006;2022-09-28T05:04:23;1.27;;;0.73;;
25615;SDS011;13482;48.234;13.006;2022-09-28T05:06:51;1.23;;;0.70;;
25615;SDS011;13482;48.234;13.006;2022-09-28T05:09:18;0.73;;;0.52;;
25615;SDS011;13482;48.234;13.006;2022-09-28T05:11:47;1.20;;;0.70;;
25615;SDS011;13482;48.234;13.006;2022-09-28T05:14:15;1.27;;;0.50;;
25615;SDS011;13482;48.234;13.006;2022-09-28T05:16:43;0.80;;;0.40;;
25615;SDS011;13482;48.234;13.006;2022-09-28T05:19:10;1.33;;;0.30;;
25615;SDS011;13482;48.234;13.006;2022-09-28T05:21:37;0.68;;;0.43;;
25615;SDS011;13482;48.234;13.006;2022-09-28T05:24:06;0.63;;;0.30;;
25615;SDS011;13482;48.234;13.006;2022-09-28T05:26:34;0.60;;;0.28;;
25615;SDS011;13482;48.234;13.006;2022-09-28T05:29:01;1.55;;;0.40;;
25615;SDS011;13482;48.234;13.006;2022-09-28T05:31:28;0.68;;;0.40;;
25615;SDS011;13482;48.234;13.006;2022-09-28T05:33:55;0.38;;;0.30;;
25615;SDS011;13482;48.234;13.006;2022-09-28T05:36:22;1.38;;;0.40;;
25615;SDS011;13482;48.234;13.006;2022-09-28T05:38:53;1.98;;;0.47;;
25615;SDS011;13482;48.234;13.006;2022-09-28T05:41:20;0.70;;;0.50;;
25615;SDS011;13482;48.234;13.006;2022-09-28T05:43:47;0.85;;;0.45;;
25615;SDS011;13482;48.234;13.006;2022-09-28T05:46:16;1.80;;;0.40;;
25615;SDS011;13482;48.234;13.006;2022-09-28T05:48:45;0.30;;;0.22;;
25615;SDS011;13482;48.234;13.006;2022-09-28T05:51:12;0.40;;;0.30;;
25615;SDS011;13482;48.234;13.006;2022-09-28T05:53:39;0.50;;;0.28;;
25615;SDS011;13482;48.234;13.006;2022-09-28T05:56:07;0.35;;;0.20;;
25615;SDS011;13482;48.234;13.006;2022-09-28T05:58:34;0.60;;;0.30;;
25615;SDS011;13482;48.234;13.006;2022-09-28T06:01:01;0.73;;;0.30;;
25615;SDS011;13482;48.234;13.006;2022-09-28T06:03:28;0.70;;;0.40;;
25615;SDS011;13482;48.234;13.006;2022-09-28T06:05:55;0.22;;;0.20;;
25615;SDS011;13482;48.234;13.006;2022-09-28T06:08:26;0.85;;;0.30;;
25615;SDS011;13482;48.234;13.006;2022-09-28T06:10:57;1.23;;;0.50;;
25615;SDS011;13482;48.234;13.006;2022-09-28T06:13:29;0.65;;;0.43;;
25615;SDS011;13482;48.234;13.006;2022-09-28T06:15:57;0.65;;;0.40;;
25615;SDS011;13482;48.234;13.006;2022-09-28T06:18:24;1.13;;;0.30;;
25615;SDS011;13482;48.234;13.006;2022-09-28T06:20:51;0.75;;;0.40;;
25615;SDS011;13482;48.234;13.006;2022-09-28T06:23:18;0.85;;;0.50;;
25615;SDS011;13482;48.234;13.006;2022-09-28T06:25:46;1.25;;;0.43;;
25615;SDS011;13482;48.234;13.006;2022-09-28T06:28:13;1.50;;;0.70;;
25615;SDS011;13482;48.234;13.006;2022-09-28T06:30:41;1.27;;;0.70;;
25615;SDS011;13482;48.234;13.006;2022-09-28T06:33:12;1.52;;;0.80;;
25615;SDS011;13482;48.234;13.006;2022-09-28T06:35:40;1.55;;;1.10;;
25615;SDS011;13482;48.234;13.006;2022-09-28T06:38:08;1.55;;;0.85;;
25615;SDS011;13482;48.234;13.006;2022-09-28T06:40:36;1.35;;;0.75;;
25615;SDS011;13482;48.234;13.006;2022-09-28T06:43:05;2.03;;;0.88;;
25615;SDS011;13482;48.234;13.006;2022-09-28T06:48:04;0.73;;;0.50;;
25615;SDS011;13482;48.234;13.006;2022-09-28T06:50:35;0.88;;;0.70;;
25615;SDS011;13482;48.234;13.006;2022-09-28T06:53:06;1.73;;;0.60;;
25615;SDS011;13482;48.234;13.006;2022-09-28T06:55:40;1.98;;;0.68;;
25615;SDS011;13482;48.234;13.006;2022-09-28T06:58:12;1.38;;;0.60;;
25615;SDS011;13482;48.234;13.006;2022-09-28T07:00:45;1.02;;;0.60;;
25615;SDS011;13482;48.234;13.006;2022-09-28T07:03:16;1.40;;;0.70;;
25615;SDS011;13482;48.234;13.006;2022-09-28T07:05:47;0.88;;;0.57;;
25615;SDS011;13482;48.234;13.006;2022-09-28T07:08:16;0.93;;;0.50;;
25615;SDS011;13482;48.234;13.006;2022-09-28T07:10:45;1.00;;;0.68;;
25615;SDS011;13482;48.234;13.006;2022-09-28T07:13:15;0.70;;;0.50;;
25615;SDS011;13482;48.234;13.006;2022-09-28T07:16:03;0.77;;;0.50;;
25615;SDS011;13482;48.234;13.006;2022-09-28T07:18:30;0.60;;;0.40;;
25615;SDS011;13482;48.234;13.006;2022-09-28T07:20:57;0.50;;;0.30;;
25615;SDS011;13482;48.234;13.006;2022-09-28T07:23:28;0.47;;;0.38;;
25615;SDS011;13482;48.234;13.006;2022-09-28T07:25:56;0.63;;;0.38;;
25615;SDS011;13482;48.234;13.006;2022-09-28T07:28:23;0.60;;;0.40;;
25615;SDS011;13482;48.234;13.006;2022-09-28T07:30:51;0.50;;;0.30;;
25615;SDS011;13482;48.234;13.006;2022-09-28T07:33:18;0.50;;;0.30;;
25615;SDS011;13482;48.234;13.006;2022-09-28T07:35:49;0.90;;;0.25;;
25615;SDS011;13482;48.234;13.006;2022-09-28T07:38:21;0.70;;;0.30;;
25615;SDS011;13482;48.234;13.006;2022-09-28T07:40:48;1.20;;;0.50;;
25615;SDS011;13482;48.234;13.006;2022-09-28T07:43:34;0.70;;;0.30;;
25615;SDS011;13482;48.234;13.006;2022-09-28T07:46:01;0.70;;;0.40;;
25615;SDS011;13482;48.234;13.006;2022-09-28T07:48:28;0.60;;;0.40;;
25615;SDS011;13482;48.234;13.006;2022-09-28T07:51:01;0.80;;;0.40;;
25615;SDS011;13482;48.234;13.006;2022-09-28T07:53:29;1.58;;;0.50;;
25615;SDS011;13482;48.234;13.006;2022-09-28T07:55:57;0.80;;;0.40;;
25615;SDS011;13482;48.234;13.006;2022-09-28T07:58:29;0.50;;;0.32;;
25615;SDS011;13482;48.234;13.006;2022-09-28T08:00:58;0.90;;;0.38;;
25615;SDS011;13482;48.234;13.006;2022-09-28T08:03:29;0.70;;;0.30;;
25615;SDS011;13482;48.234;13.006;2022-09-28T08:05:57;0.50;;;0.30;;
25615;SDS011;13482;48.234;13.006;2022-09-28T08:08:26;0.85;;;0.40;;
25615;SDS011;13482;48.234;13.006;2022-09-28T08:10:56;0.40;;;0.30;;
25615;SDS011;13482;48.234;13.006;2022-09-28T08:13:23;1.35;;;0.55;;
25615;SDS011;13482;48.234;13.006;2022-09-28T08:15:52;0.73;;;0.40;;
25615;SDS011;13482;48.234;13.006;2022-09-28T08:18:20;0.57;;;0.40;;
25615;SDS011;13482;48.234;13.006;2022-09-28T08:20:50;0.30;;;0.20;;
25615;SDS011;13482;48.234;13.006;2022-09-28T08:23:36;0.80;;;0.30;;
25615;SDS011;13482;48.234;13.006;2022-09-28T08:26:04;0.38;;;0.20;;
25615;SDS011;13482;48.234;13.006;2022-09-28T08:28:32;0.73;;;0.30;;
25615;SDS011;13482;48.234;13.006;2022-09-28T08:31:02;0.47;;;0.30;;
25615;SDS011;13482;48.234;13.006;2022-09-28T08:33:33;0.30;;;0.28;;
25615;SDS011;13482;48.234;13.006;2022-09-28T08:36:01;0.60;;;0.35;;
25615;SDS011;13482;48.234;13.006;2022-09-28T08:38:30;0.52;;;0.30;;
25615;SDS011;13482;48.234;13.006;2022-09-28T08:46:39;0.40;;;0.30;;
25615;SDS011;13482;48.234;13.006;2022-09-28T08:49:24;0.63;;;0.30;;
25615;SDS011;13482;48.234;13.006;2022-09-28T08:52:19;0.25;;;0.15;;
25615;SDS011;13482;48.234;13.006;2022-09-28T08:55:01;1.33;;;0.40;;
25615;SDS011;13482;48.234;13.006;2022-09-28T08:57:50;0.50;;;0.30;;
25615;SDS011;13482;48.234;13.006;2022-09-28T09:00:34;0.30;;;0.20;;
25615;SDS011;13482;48.234;13.006;2022-09-28T09:03:13;0.20;;;0.20;;
25615;SDS011;13482;48.234;13.006;2022-09-28T09:08:47;0.43;;;0.28;;
25615;SDS011;13482;48.234;13.006;2022-09-28T09:12:05;0.38;;;0.28;;
25615;SDS011;13482;48.234;13.006;2022-09-28T09:18:03;0.45;;;0.20;;
25615;SDS011;13482;48.234;13.006;2022-09-28T09:21:09;0.20;;;0.20;;
25615;SDS011;13482;48.234;13.006;2022-09-28T09:23:54;0.25;;;0.20;;
25615;SDS011;13482;48.234;13.006;2022-09-28T09:26:36;1.17;;;0.40;;
25615;SDS011;13482;48.234;13.006;2022-09-28T09:46:38;0.57;;;0.47;;
25615;SDS011;13482;48.234;13.006;2022-09-28T09:49:17;0.63;;;0.30;;
25615;SDS011;13482;48.234;13.006;2022-09-28T09:54:36;1.92;;;0.80;;
25615;SDS011;13482;48.234;13.006;2022-09-28T09:57:14;3.00;;;1.20;;
25615;SDS011;13482;48.234;13.006;2022-09-28T09:59:54;4.75;;;2.80;;
25615;SDS011;13482;48.234;13.006;2022-09-28T10:02:28;2.35;;;1.52;;
25615;SDS011;13482;48.234;13.006;2022-09-28T10:05:04;1.60;;;1.02;;
25615;SDS011;13482;48.234;13.006;2022-09-28T10:07:53;1.50;;;0.77;;
25615;SDS011;13482;48.234;13.006;2022-09-28T10:12:59;1.55;;;0.38;;
25615;SDS011;13482;48.234;13.006;2022-09-28T10:15:28;0.32;;;0.20;;
25615;SDS011;13482;48.234;13.006;2022-09-28T10:18:00;0.90;;;0.40;;
25615;SDS011;13482;48.234;13.006;2022-09-28T10:20:41;0.77;;;0.40;;
25615;SDS011;13482;48.234;13.006;2022-09-28T10:23:19;0.82;;;0.38;;
25615;SDS011;13482;48.234;13.006;2022-09-28T10:25:58;0.35;;;0.22;;
25615;SDS011;13482;48.234;13.006;2022-09-28T10:34:10;0.55;;;0.30;;
25615;SDS011;13482;48.234;13.006;2022-09-28T10:36:46;0.68;;;0.47;;
25615;SDS011;13482;48.234;13.006;2022-09-28T10:42:03;0.85;;;0.43;;
25615;SDS011;13482;48.234;13.006;2022-09-28T10:44:41;1.15;;;0.70;;
25615;SDS011;13482;48.234;13.006;2022-09-28T10:47:24;1.77;;;0.88;;
25615;SDS011;13482;48.234;13.006;2022-09-28T10:49:55;1.70;;;0.80;;
25615;SDS011;13482;48.234;13.006;2022-09-28T10:57:46;1.73;;;1.30;;
25615;SDS011;13482;48.234;13.006;2022-09-28T11:01:00;16.67;;;14.98;;
25615;SDS011;13482;48.234;13.006;2022-09-28T11:03:22;12.73;;;11.43;;
25615;SDS011;13482;48.234;13.006;2022-09-28T11:05:56;5.63;;;5.13;;
25615;SDS011;13482;48.234;13.006;2022-09-28T11:08:33;3.15;;;2.78;;
25615;SDS011;13482;48.234;13.006;2022-09-28T11:11:06;2.38;;;1.77;;
25615;SDS011;13482;48.234;13.006;2022-09-28T11:13:48;2.75;;;1.42;;
25615;SDS011;13482;48.234;13.006;2022-09-28T11:18:50;1.17;;;0.82;;
25615;SDS011;13482;48.234;13.006;2022-09-28T11:21:22;1.23;;;0.73;;
25615;SDS011;13482;48.234;13.006;2022-09-28T11:24:16;0.77;;;0.40;;
25615;SDS011;13482;48.234;13.006;2022-09-28T11:26:58;0.60;;;0.40;;
25615;SDS011;13482;48.234;13.006;2022-09-28T11:32:02;1.15;;;0.40;;
25615;SDS011;13482;48.234;13.006;2022-09-28T11:34:33;0.30;;;0.30;;
25615;SDS011;13482;48.234;13.006;2022-09-28T11:37:27;0.20;;;0.20;;
25615;SDS011;13482;48.234;13.006;2022-09-28T11:48:41;0.47;;;0.10;;
25615;SDS011;13482;48.234;13.006;2022-09-28T11:51:15;0.30;;;0.20;;
25615;SDS011;13482;48.234;13.006;2022-09-28T11:53:59;0.40;;;0.20;;
25615;SDS011;13482;48.234;13.006;2022-09-28T11:56:44;0.10;;;0.00;;
25615;SDS011;13482;48.234;13.006;2022-09-28T11:59:19;1.13;;;0.30;;
25615;SDS011;13482;48.234;13.006;2022-09-28T12:02:02;0.28;;;0.20;;
25615;SDS011;13482;48.234;13.006;2022-09-28T12:07:24;0.80;;;0.25;;
25615;SDS011;13482;48.234;13.006;2022-09-28T12:10:10;0.10;;;0.10;;
25615;SDS011;13482;48.234;13.006;2022-09-28T12:13:10;0.45;;;0.20;;
25615;SDS011;13482;48.234;13.006;2022-09-28T12:21:35;0.20;;;0.10;;
25615;SDS011;13482;48.234;13.006;2022-09-28T12:24:11;0.20;;;0.10;;
25615;SDS011;13482;48.234;13.006;2022-09-28T12:27:04;0.47;;;0.20;;
25615;SDS011;13482;48.234;13.006;2022-09-28T12:30:03;0.40;;;0.22;;
25615;SDS011;13482;48.234;13.006;2022-09-28T12:33:03;0.50;;;0.15;;
25615;SDS011;13482;48.234;13.006;2022-09-28T12:38:44;0.60;;;0.20;;
25615;SDS011;13482;48.234;13.006;2022-09-28T12:45:01;1.00;;;0.30;;
25615;SDS011;13482;48.234;13.006;2022-09-28T12:51:17;0.50;;;0.20;;
25615;SDS011;13482;48.234;13.006;2022-09-28T13:00:09;0.32;;;0.20;;
25615;SDS011;13482;48.234;13.006;2022-09-28T13:26:12;0.32;;;0.20;;
25615;SDS011;13482;48.234;13.006;2022-09-28T13:28:55;0.50;;;0.10;;
25615;SDS011;13482;48.234;13.006;2022-09-28T13:31:30;0.55;;;0.20;;
25615;SDS011;13482;48.234;13.006;2022-09-28T13:34:02;1.77;;;0.75;;
25615;SDS011;13482;48.234;13.006;2022-09-28T13:38:58;0.25;;;0.20;;
25615;SDS011;13482;48.234;13.006;2022-09-28T13:47:04;0.40;;;0.40;;
25615;SDS011;13482;48.234;13.006;2022-09-28T13:58:05;0.65;;;0.20;;
25615;SDS011;13482;48.234;13.006;2022-09-28T14:11:59;0.68;;;0.20;;
25615;SDS011;13482;48.234;13.006;2022-09-28T14:14:48;0.85;;;0.22;;
25615;SDS011;13482;48.234;13.006;2022-09-28T14:19:54;0.28;;;0.10;;
25615;SDS011;13482;48.234;13.006;2022-09-28T14:25:30;0.30;;;0.20;;
25615;SDS011;13482;48.234;13.006;2022-09-28T14:31:26;0.68;;;0.40;;
25615;SDS011;13482;48.234;13.006;2022-09-28T14:33:56;0.75;;;0.40;;
25615;SDS011;13482;48.234;13.006;2022-09-28T14:36:28;1.42;;;0.50;;
25615;SDS011;13482;48.234;13.006;2022-09-28T14:39:32;2.00;;;0.50;;
25615;SDS011;13482;48.234;13.006;2022-09-28T14:42:22;1.20;;;0.60;;
25615;SDS011;13482;48.234;13.006;2022-09-28T14:48:10;1.60;;;0.60;;
25615;SDS011;13482;48.234;13.006;2022-09-28T14:50:40;2.40;;;0.93;;
25615;SDS011;13482;48.234;13.006;2022-09-28T14:53:11;2.53;;;1.25;;
25615;SDS011;13482;48.234;13.006;2022-09-28T14:55:46;1.70;;;0.93;;
25615;SDS011;13482;48.234;13.006;2022-09-28T14:58:19;1.95;;;0.73;;
25615;SDS011;13482;48.234;13.006;2022-09-28T15:00:54;1.75;;;0.40;;
25615;SDS011;13482;48.234;13.006;2022-09-28T15:03:29;0.80;;;0.40;;
25615;SDS011;13482;48.234;13.006;2022-09-28T15:05:59;1.23;;;0.40;;
25615;SDS011;13482;48.234;13.006;2022-09-28T15:08:36;0.80;;;0.38;;
25615;SDS011;13482;48.234;13.006;2022-09-28T15:11:04;0.95;;;0.30;;
25615;SDS011;13482;48.234;13.006;2022-09-28T15:13:39;0.40;;;0.20;;
25615;SDS011;13482;48.234;13.006;2022-09-28T15:21:41;0.30;;;0.20;;
25615;SDS011;13482;48.234;13.006;2022-09-28T15:26:58;2.38;;;1.10;;
25615;SDS011;13482;48.234;13.006;2022-09-28T15:29:27;1.38;;;0.80;;
25615;SDS011;13482;48.234;13.006;2022-09-28T15:31:58;1.90;;;0.88;;
25615;SDS011;13482;48.234;13.006;2022-09-28T15:34:33;1.05;;;0.60;;
25615;SDS011;13482;48.234;13.006;2022-09-28T15:37:20;1.08;;;0.65;;
25615;SDS011;13482;48.234;13.006;2022-09-28T15:39:52;0.85;;;0.40;;
25615;SDS011;13482;48.234;13.006;2022-09-28T15:42:21;1.10;;;0.60;;
25615;SDS011;13482;48.234;13.006;2022-09-28T15:47:27;1.45;;;0.70;;
25615;SDS011;13482;48.234;13.006;2022-09-28T16:00:39;1.65;;;1.00;;
25615;SDS011;13482;48.234;13.006;2022-09-28T16:05:41;1.50;;;0.80;;
25615;SDS011;13482;48.234;13.006;2022-09-28T16:08:19;2.05;;;0.90;;
25615;SDS011;13482;48.234;13.006;2022-09-28T16:11:35;1.90;;;0.70;;
25615;SDS011;13482;48.234;13.006;2022-09-28T16:16:33;1.30;;;1.05;;
25615;SDS011;13482;48.234;13.006;2022-09-28T16:19:24;0.88;;;0.60;;
25615;SDS011;13482;48.234;13.006;2022-09-28T16:21:56;1.42;;;0.63;;
25615;SDS011;13482;48.234;13.006;2022-09-28T16:24:26;1.23;;;0.70;;
25615;SDS011;13482;48.234;13.006;2022-09-28T16:26:58;1.10;;;0.70;;
25615;SDS011;13482;48.234;13.006;2022-09-28T16:29:39;1.10;;;0.50;;
25615;SDS011;13482;48.234;13.006;2022-09-28T16:37:34;1.08;;;0.57;;
25615;SDS011;13482;48.234;13.006;2022-09-28T16:40:02;1.10;;;0.40;;
25615;SDS011;13482;48.234;13.006;2022-09-28T16:42:29;0.50;;;0.32;;
25615;SDS011;13482;48.234;13.006;2022-09-28T16:44:57;0.55;;;0.30;;
25615;SDS011;13482;48.234;13.006;2022-09-28T16:47:27;1.05;;;0.50;;
25615;SDS011;13482;48.234;13.006;2022-09-28T16:49:59;0.73;;;0.35;;
25615;SDS011;13482;48.234;13.006;2022-09-28T16:52:29;0.98;;;0.45;;
25615;SDS011;13482;48.234;13.006;2022-09-28T16:55:15;0.85;;;0.40;;
25615;SDS011;13482;48.234;13.006;2022-09-28T16:58:02;1.00;;;0.40;;
25615;SDS011;13482;48.234;13.006;2022-09-28T17:00:30;1.00;;;0.50;;
25615;SDS011;13482;48.234;13.006;2022-09-28T17:02:57;2.22;;;0.50;;
25615;SDS011;13482;48.234;13.006;2022-09-28T17:05:25;1.25;;;0.57;;
25615;SDS011;13482;48.234;13.006;2022-09-28T17:07:57;0.90;;;0.45;;
25615;SDS011;13482;48.234;13.006;2022-09-28T17:10:30;1.35;;;0.63;;
25615;SDS011;13482;48.234;13.006;2022-09-28T17:13:32;1.70;;;0.90;;
25615;SDS011;13482;48.234;13.006;2022-09-28T17:16:03;1.38;;;0.80;;
25615;SDS011;13482;48.234;13.006;2022-09-28T17:18:36;1.88;;;0.95;;
25615;SDS011;13482;48.234;13.006;2022-09-28T17:21:06;1.20;;;0.80;;
25615;SDS011;13482;48.234;13.006;2022-09-28T17:23:46;2.47;;;1.38;;
25615;SDS011;13482;48.234;13.006;2022-09-28T17:26:19;1.40;;;0.90;;
25615;SDS011;13482;48.234;13.006;2022-09-28T17:28:58;1.25;;;0.95;;
25615;SDS011;13482;48.234;13.006;2022-09-28T17:31:27;1.67;;;0.85;;
25615;SDS011;13482;48.234;13.006;2022-09-28T17:33:55;1.75;;;1.08;;
25615;SDS011;13482;48.234;13.006;2022-09-28T17:36:23;1.60;;;0.93;;
25615;SDS011;13482;48.234;13.006;2022-09-28T17:38:51;2.67;;;1.20;;
25615;SDS011;13482;48.234;13.006;2022-09-28T17:41:19;1.90;;;1.00;;
25615;SDS011;13482;48.234;13.006;2022-09-28T17:43:46;2.05;;;1.13;;
25615;SDS011;13482;48.234;13.006;2022-09-28T17:48:55;2.33;;;1.10;;
25615;SDS011;13482;48.234;13.006;2022-09-28T17:53:56;3.00;;;2.05;;
25615;SDS011;13482;48.234;13.006;2022-09-28T17:56:26;2.50;;;1.77;;
25615;SDS011;13482;48.234;13.006;2022-09-28T17:59:02;3.03;;;1.90;;
25615;SDS011;13482;48.234;13.006;2022-09-28T18:01:32;3.00;;;1.98;;
25615;SDS011;13482;48.234;13.006;2022-09-28T18:04:04;3.65;;;2.58;;
25615;SDS011;13482;48.234;13.006;2022-09-28T18:06:34;3.67;;;2.35;;
25615;SDS011;13482;48.234;13.006;2022-09-28T18:09:03;2.22;;;1.40;;
25615;SDS011;13482;48.234;13.006;2022-09-28T18:11:30;1.83;;;1.13;;
25615;SDS011;13482;48.234;13.006;2022-09-28T18:13:58;2.28;;;1.10;;
25615;SDS011;13482;48.234;13.006;2022-09-28T18:16:26;5.32;;;2.53;;
25615;SDS011;13482;48.234;13.006;2022-09-28T18:18:54;4.25;;;2.58;;
25615;SDS011;13482;48.234;13.006;2022-09-28T18:21:21;3.78;;;2.45;;
25615;SDS011;13482;48.234;13.006;2022-09-28T18:23:49;2.53;;;1.40;;
25615;SDS011;13482;48.234;13.006;2022-09-28T18:26:16;2.00;;;1.10;;
25615;SDS011;13482;48.234;13.006;2022-09-28T18:28:46;2.53;;;1.38;;
25615;SDS011;13482;48.234;13.006;2022-09-28T18:31:14;2.85;;;1.70;;
25615;SDS011;13482;48.234;13.006;2022-09-28T18:33:44;2.47;;;1.80;;
25615;SDS011;13482;48.234;13.006;2022-09-28T18:36:13;2.45;;;1.20;;
25615;SDS011;13482;48.234;13.006;2022-09-28T18:38:40;2.22;;;1.30;;
25615;SDS011;13482;48.234;13.006;2022-09-28T18:41:08;1.85;;;1.30;;
25615;SDS011;13482;48.234;13.006;2022-09-28T18:46:08;2.40;;;1.30;;
25615;SDS011;13482;48.234;13.006;2022-09-28T18:48:37;2.80;;;1.60;;
25615;SDS011;13482;48.234;13.006;2022-09-28T18:51:09;3.17;;;1.75;;
25615;SDS011;13482;48.234;13.006;2022-09-28T18:56:08;1.55;;;0.93;;
25615;SDS011;13482;48.234;13.006;2022-09-28T18:58:40;2.30;;;1.30;;
25615;SDS011;13482;48.234;13.006;2022-09-28T19:01:09;3.75;;;1.90;;